sensor_id;sensor_type;location;lat;lon;timestamp;P1;durP1;ratioP1;P2;durP2;ratioP2
15112;SDS011;7657;50.140;7.076;2023-04-15T00:01:52;5.90;;;1.40;;
15112;SDS011;7657;50.140;7.076;2023-04-15T00:04:19;3.33;;;1.30;;
15112;SDS011;7657;50.140;7.076;2023-04-15T00:06:49;2.73;;;1.10;;
15112;SDS011;7657;50.140;7.076;2023-04-15T00:09:18;2.97;;;1.30;;
15112;SDS011;7657;50.140;7.076;2023-04-15T00:11:45;4.60;;;1.30;;
15112;SDS011;7657;50.140;7.076;2023-04-15T00:14:12;3.07;;;1.10;;
15112;SDS011;7657;50.140;7.076;2023-04-15T00:16:39;3.70;;;1.07;;
15112;SDS011;7657;50.140;7.076;2023-04-15T00:19:06;6.07;;;1.83;;
15112;SDS011;7657;50.140;7.076;2023-04-15T00:21:33;2.03;;;1.40;;
15112;SDS011;7657;50.140;7.076;2023-04-15T00:24:00;3.40;;;1.50;;
15112;SDS011;7657;50.140;7.076;2023-04-15T00:26:29;2.10;;;1.43;;
15112;SDS011;7657;50.140;7.076;2023-04-15T00:28:56;4.07;;;1.90;;
15112;SDS011;7657;50.140;7.076;2023-04-15T00:31:23;2.87;;;1.20;;
15112;SDS011;7657;50.140;7.076;2023-04-15T00:33:50;3.97;;;1.60;;
15112;SDS011;7657;50.140;7.076;2023-04-15T00:36:17;2.40;;;1.20;;
15112;SDS011;7657;50.140;7.076;2023-04-15T00:38:44;3.20;;;1.40;;
15112;SDS011;7657;50.140;7.076;2023-04-15T00:41:11;6.07;;;1.83;;
15112;SDS011;7657;50.140;7.076;2023-04-15T00:43:39;4.47;;;1.60;;
15112;SDS011;7657;50.140;7.076;2023-04-15T00:46:07;3.77;;;1.60;;
15112;SDS011;7657;50.140;7.076;2023-04-15T00:48:35;2.80;;;1.33;;
15112;SDS011;7657;50.140;7.076;2023-04-15T00:51:03;3.67;;;1.30;;
15112;SDS011;7657;50.140;7.076;2023-04-15T00:53:29;4.63;;;1.57;;
15112;SDS011;7657;50.140;7.076;2023-04-15T00:55:56;3.67;;;1.30;;
15112;SDS011;7657;50.140;7.076;2023-04-15T00:58:23;4.60;;;1.83;;
15112;SDS011;7657;50.140;7.076;2023-04-15T01:00:53;4.60;;;1.80;;
15112;SDS011;7657;50.140;7.076;2023-04-15T01:03:21;3.90;;;1.50;;
15112;SDS011;7657;50.140;7.076;2023-04-15T01:05:48;4.57;;;1.67;;
15112;SDS011;7657;50.140;7.076;2023-04-15T01:08:17;3.00;;;1.40;;
15112;SDS011;7657;50.140;7.076;2023-04-15T01:10:43;4.40;;;1.50;;
15112;SDS011;7657;50.140;7.076;2023-04-15T01:13:10;4.07;;;1.10;;
15112;SDS011;7657;50.140;7.076;2023-04-15T01:15:37;1.73;;;1.30;;
15112;SDS011;7657;50.140;7.076;2023-04-15T01:18:06;8.23;;;2.77;;
15112;SDS011;7657;50.140;7.076;2023-04-15T01:20:33;4.17;;;0.93;;
15112;SDS011;7657;50.140;7.076;2023-04-15T01:23:01;3.90;;;1.30;;
15112;SDS011;7657;50.140;7.076;2023-04-15T01:25:31;3.07;;;1.20;;
15112;SDS011;7657;50.140;7.076;2023-04-15T01:27:59;4.73;;;1.60;;
15112;SDS011;7657;50.140;7.076;2023-04-15T01:30:26;2.53;;;1.10;;
15112;SDS011;7657;50.140;7.076;2023-04-15T01:32:53;5.93;;;1.50;;
15112;SDS011;7657;50.140;7.076;2023-04-15T01:35:20;7.97;;;1.80;;
15112;SDS011;7657;50.140;7.076;2023-04-15T01:37:48;4.87;;;1.30;;
15112;SDS011;7657;50.140;7.076;2023-04-15T01:40:15;4.70;;;1.10;;
15112;SDS011;7657;50.140;7.076;2023-04-15T01:42:43;3.27;;;1.63;;
15112;SDS011;7657;50.140;7.076;2023-04-15T01:45:10;2.70;;;1.60;;
15112;SDS011;7657;50.140;7.076;2023-04-15T01:47:38;7.10;;;1.50;;
15112;SDS011;7657;50.140;7.076;2023-04-15T01:50:05;2.63;;;1.27;;
15112;SDS011;7657;50.140;7.076;2023-04-15T01:52:32;4.17;;;1.70;;
15112;SDS011;7657;50.140;7.076;2023-04-15T01:54:59;2.37;;;1.30;;
15112;SDS011;7657;50.140;7.076;2023-04-15T01:57:26;3.43;;;1.50;;
15112;SDS011;7657;50.140;7.076;2023-04-15T01:59:54;7.60;;;1.77;;
15112;SDS011;7657;50.140;7.076;2023-04-15T02:02:21;2.53;;;1.30;;
15112;SDS011;7657;50.140;7.076;2023-04-15T02:04:48;2.97;;;1.23;;
15112;SDS011;7657;50.140;7.076;2023-04-15T02:07:15;3.43;;;1.43;;
15112;SDS011;7657;50.140;7.076;2023-04-15T02:09:42;3.37;;;1.30;;
15112;SDS011;7657;50.140;7.076;2023-04-15T02:12:10;4.20;;;1.37;;
15112;SDS011;7657;50.140;7.076;2023-04-15T02:14:37;2.50;;;1.20;;
15112;SDS011;7657;50.140;7.076;2023-04-15T02:17:05;5.40;;;1.53;;
15112;SDS011;7657;50.140;7.076;2023-04-15T02:19:32;3.10;;;1.43;;
15112;SDS011;7657;50.140;7.076;2023-04-15T02:21:59;3.70;;;1.40;;
15112;SDS011;7657;50.140;7.076;2023-04-15T02:24:26;3.23;;;1.73;;
15112;SDS011;7657;50.140;7.076;2023-04-15T02:26:54;4.90;;;1.20;;
15112;SDS011;7657;50.140;7.076;2023-04-15T02:29:22;3.50;;;1.40;;
15112;SDS011;7657;50.140;7.076;2023-04-15T02:31:48;4.80;;;1.83;;
15112;SDS011;7657;50.140;7.076;2023-04-15T02:34:17;6.17;;;2.37;;
15112;SDS011;7657;50.140;7.076;2023-04-15T02:36:44;5.30;;;1.93;;
15112;SDS011;7657;50.140;7.076;2023-04-15T02:39:12;3.43;;;1.50;;
15112;SDS011;7657;50.140;7.076;2023-04-15T02:41:40;4.13;;;1.60;;
15112;SDS011;7657;50.140;7.076;2023-04-15T02:44:11;2.87;;;1.37;;
15112;SDS011;7657;50.140;7.076;2023-04-15T02:46:38;2.73;;;1.47;;
15112;SDS011;7657;50.140;7.076;2023-04-15T02:49:05;6.93;;;1.50;;
15112;SDS011;7657;50.140;7.076;2023-04-15T02:51:34;2.93;;;1.20;;
15112;SDS011;7657;50.140;7.076;2023-04-15T02:54:01;3.80;;;1.80;;
15112;SDS011;7657;50.140;7.076;2023-04-15T02:56:28;3.93;;;1.67;;
15112;SDS011;7657;50.140;7.076;2023-04-15T02:58:55;1.60;;;1.27;;
15112;SDS011;7657;50.140;7.076;2023-04-15T03:01:22;4.93;;;2.07;;
15112;SDS011;7657;50.140;7.076;2023-04-15T03:03:50;7.03;;;2.30;;
15112;SDS011;7657;50.140;7.076;2023-04-15T03:06:17;5.67;;;1.80;;
15112;SDS011;7657;50.140;7.076;2023-04-15T03:08:45;6.00;;;1.90;;
15112;SDS011;7657;50.140;7.076;2023-04-15T03:11:12;2.77;;;1.57;;
15112;SDS011;7657;50.140;7.076;2023-04-15T03:13:40;4.03;;;1.77;;
15112;SDS011;7657;50.140;7.076;2023-04-15T03:16:07;3.47;;;1.43;;
15112;SDS011;7657;50.140;7.076;2023-04-15T03:18:34;5.17;;;2.00;;
15112;SDS011;7657;50.140;7.076;2023-04-15T03:21:01;3.13;;;1.47;;
15112;SDS011;7657;50.140;7.076;2023-04-15T03:23:29;4.23;;;1.60;;
15112;SDS011;7657;50.140;7.076;2023-04-15T03:25:59;3.23;;;1.60;;
15112;SDS011;7657;50.140;7.076;2023-04-15T03:28:27;3.23;;;1.10;;
15112;SDS011;7657;50.140;7.076;2023-04-15T03:30:54;6.53;;;1.80;;
15112;SDS011;7657;50.140;7.076;2023-04-15T03:33:21;3.33;;;1.57;;
15112;SDS011;7657;50.140;7.076;2023-04-15T03:35:49;4.13;;;1.60;;
15112;SDS011;7657;50.140;7.076;2023-04-15T03:38:16;5.17;;;1.60;;
15112;SDS011;7657;50.140;7.076;2023-04-15T03:40:44;1.87;;;1.40;;
15112;SDS011;7657;50.140;7.076;2023-04-15T03:43:13;2.37;;;1.47;;
15112;SDS011;7657;50.140;7.076;2023-04-15T03:45:40;4.83;;;1.57;;
15112;SDS011;7657;50.140;7.076;2023-04-15T03:48:07;3.20;;;1.20;;
15112;SDS011;7657;50.140;7.076;2023-04-15T03:50:34;1.73;;;1.20;;
15112;SDS011;7657;50.140;7.076;2023-04-15T03:53:01;2.77;;;1.20;;
15112;SDS011;7657;50.140;7.076;2023-04-15T03:55:28;4.57;;;1.50;;
15112;SDS011;7657;50.140;7.076;2023-04-15T03:57:55;3.43;;;1.23;;
15112;SDS011;7657;50.140;7.076;2023-04-15T04:00:23;5.93;;;1.73;;
15112;SDS011;7657;50.140;7.076;2023-04-15T04:02:50;3.93;;;1.40;;
15112;SDS011;7657;50.140;7.076;2023-04-15T04:05:17;6.17;;;1.70;;
15112;SDS011;7657;50.140;7.076;2023-04-15T04:07:44;2.83;;;1.47;;
15112;SDS011;7657;50.140;7.076;2023-04-15T04:10:11;3.33;;;1.43;;
15112;SDS011;7657;50.140;7.076;2023-04-15T04:12:38;3.00;;;1.47;;
15112;SDS011;7657;50.140;7.076;2023-04-15T04:15:05;2.10;;;1.20;;
15112;SDS011;7657;50.140;7.076;2023-04-15T04:17:34;1.80;;;1.20;;
15112;SDS011;7657;50.140;7.076;2023-04-15T04:20:01;2.07;;;1.27;;
15112;SDS011;7657;50.140;7.076;2023-04-15T04:22:29;3.30;;;1.60;;
15112;SDS011;7657;50.140;7.076;2023-04-15T04:24:56;1.87;;;1.20;;
15112;SDS011;7657;50.140;7.076;2023-04-15T04:27:24;2.20;;;1.10;;
15112;SDS011;7657;50.140;7.076;2023-04-15T04:29:51;5.03;;;1.60;;
15112;SDS011;7657;50.140;7.076;2023-04-15T04:32:18;4.07;;;1.40;;
15112;SDS011;7657;50.140;7.076;2023-04-15T04:34:46;4.73;;;1.37;;
15112;SDS011;7657;50.140;7.076;2023-04-15T04:37:13;4.03;;;1.70;;
15112;SDS011;7657;50.140;7.076;2023-04-15T04:39:40;3.90;;;1.53;;
15112;SDS011;7657;50.140;7.076;2023-04-15T04:42:07;3.17;;;1.50;;
15112;SDS011;7657;50.140;7.076;2023-04-15T04:44:34;4.20;;;1.37;;
15112;SDS011;7657;50.140;7.076;2023-04-15T04:47:01;2.17;;;1.40;;
15112;SDS011;7657;50.140;7.076;2023-04-15T04:49:28;3.90;;;1.60;;
15112;SDS011;7657;50.140;7.076;2023-04-15T04:51:56;6.20;;;2.70;;
15112;SDS011;7657;50.140;7.076;2023-04-15T04:54:23;2.10;;;1.30;;
15112;SDS011;7657;50.140;7.076;2023-04-15T04:56:51;3.67;;;1.20;;
15112;SDS011;7657;50.140;7.076;2023-04-15T04:59:18;5.23;;;1.43;;
15112;SDS011;7657;50.140;7.076;2023-04-15T05:01:45;3.77;;;1.53;;
15112;SDS011;7657;50.140;7.076;2023-04-15T05:04:12;4.03;;;1.67;;
15112;SDS011;7657;50.140;7.076;2023-04-15T05:06:39;4.40;;;1.70;;
15112;SDS011;7657;50.140;7.076;2023-04-15T05:09:07;2.63;;;1.50;;
15112;SDS011;7657;50.140;7.076;2023-04-15T05:11:34;1.77;;;1.10;;
15112;SDS011;7657;50.140;7.076;2023-04-15T05:14:01;5.60;;;1.50;;
15112;SDS011;7657;50.140;7.076;2023-04-15T05:16:28;2.93;;;1.30;;
15112;SDS011;7657;50.140;7.076;2023-04-15T05:18:55;1.83;;;1.50;;
15112;SDS011;7657;50.140;7.076;2023-04-15T05:21:22;4.67;;;1.77;;
15112;SDS011;7657;50.140;7.076;2023-04-15T05:23:49;5.70;;;1.30;;
15112;SDS011;7657;50.140;7.076;2023-04-15T05:26:17;2.40;;;1.20;;
15112;SDS011;7657;50.140;7.076;2023-04-15T05:28:44;3.50;;;1.20;;
15112;SDS011;7657;50.140;7.076;2023-04-15T05:31:11;4.47;;;1.40;;
15112;SDS011;7657;50.140;7.076;2023-04-15T05:33:39;3.27;;;1.40;;
15112;SDS011;7657;50.140;7.076;2023-04-15T05:36:06;3.73;;;1.50;;
15112;SDS011;7657;50.140;7.076;2023-04-15T05:38:32;3.37;;;1.50;;
15112;SDS011;7657;50.140;7.076;2023-04-15T05:40:59;5.33;;;1.97;;
15112;SDS011;7657;50.140;7.076;2023-04-15T05:43:28;3.10;;;1.40;;
15112;SDS011;7657;50.140;7.076;2023-04-15T05:45:55;4.43;;;1.50;;
15112;SDS011;7657;50.140;7.076;2023-04-15T05:48:22;2.87;;;1.27;;
15112;SDS011;7657;50.140;7.076;2023-04-15T05:50:49;4.60;;;1.47;;
15112;SDS011;7657;50.140;7.076;2023-04-15T05:53:16;4.67;;;1.27;;
15112;SDS011;7657;50.140;7.076;2023-04-15T05:55:43;4.60;;;2.30;;
15112;SDS011;7657;50.140;7.076;2023-04-15T05:58:10;5.40;;;1.70;;
15112;SDS011;7657;50.140;7.076;2023-04-15T06:00:38;3.23;;;1.50;;
15112;SDS011;7657;50.140;7.076;2023-04-15T06:03:05;4.83;;;1.60;;
15112;SDS011;7657;50.140;7.076;2023-04-15T06:05:32;3.83;;;1.30;;
15112;SDS011;7657;50.140;7.076;2023-04-15T06:07:59;5.50;;;1.50;;
15112;SDS011;7657;50.140;7.076;2023-04-15T06:10:26;9.63;;;1.63;;
15112;SDS011;7657;50.140;7.076;2023-04-15T06:12:53;5.17;;;1.63;;
15112;SDS011;7657;50.140;7.076;2023-04-15T06:15:20;3.50;;;1.40;;
15112;SDS011;7657;50.140;7.076;2023-04-15T06:17:48;4.37;;;2.13;;
15112;SDS011;7657;50.140;7.076;2023-04-15T06:20:15;2.00;;;1.13;;
15112;SDS011;7657;50.140;7.076;2023-04-15T06:22:42;4.37;;;2.10;;
15112;SDS011;7657;50.140;7.076;2023-04-15T06:25:09;9.80;;;4.07;;
15112;SDS011;7657;50.140;7.076;2023-04-15T06:27:36;4.23;;;2.47;;
15112;SDS011;7657;50.140;7.076;2023-04-15T06:30:03;4.97;;;2.33;;
15112;SDS011;7657;50.140;7.076;2023-04-15T06:32:31;4.77;;;1.70;;
15112;SDS011;7657;50.140;7.076;2023-04-15T06:35:00;5.70;;;2.23;;
15112;SDS011;7657;50.140;7.076;2023-04-15T06:37:26;4.83;;;2.27;;
15112;SDS011;7657;50.140;7.076;2023-04-15T06:39:53;5.03;;;2.70;;
15112;SDS011;7657;50.140;7.076;2023-04-15T06:42:20;5.90;;;2.90;;
15112;SDS011;7657;50.140;7.076;2023-04-15T06:44:48;5.03;;;2.50;;
15112;SDS011;7657;50.140;7.076;2023-04-15T06:47:15;7.23;;;4.20;;
15112;SDS011;7657;50.140;7.076;2023-04-15T06:49:43;5.10;;;3.37;;
15112;SDS011;7657;50.140;7.076;2023-04-15T06:52:12;6.00;;;3.03;;
15112;SDS011;7657;50.140;7.076;2023-04-15T06:54:40;4.13;;;2.57;;
15112;SDS011;7657;50.140;7.076;2023-04-15T06:57:07;5.20;;;2.40;;
15112;SDS011;7657;50.140;7.076;2023-04-15T06:59:34;3.70;;;2.40;;
15112;SDS011;7657;50.140;7.076;2023-04-15T07:02:01;3.83;;;1.70;;
15112;SDS011;7657;50.140;7.076;2023-04-15T07:04:28;5.43;;;1.80;;
15112;SDS011;7657;50.140;7.076;2023-04-15T07:06:55;7.70;;;2.50;;
15112;SDS011;7657;50.140;7.076;2023-04-15T07:09:24;7.33;;;2.77;;
15112;SDS011;7657;50.140;7.076;2023-04-15T07:11:50;7.83;;;2.90;;
15112;SDS011;7657;50.140;7.076;2023-04-15T07:14:17;4.87;;;1.80;;
15112;SDS011;7657;50.140;7.076;2023-04-15T07:16:44;5.30;;;1.70;;
15112;SDS011;7657;50.140;7.076;2023-04-15T07:19:11;3.10;;;1.65;;
15112;SDS011;7657;50.140;7.076;2023-04-15T07:21:38;5.45;;;1.88;;
15112;SDS011;7657;50.140;7.076;2023-04-15T07:24:05;8.15;;;3.78;;
15112;SDS011;7657;50.140;7.076;2023-04-15T07:26:34;7.57;;;4.25;;
15112;SDS011;7657;50.140;7.076;2023-04-15T07:29:01;8.07;;;3.85;;
15112;SDS011;7657;50.140;7.076;2023-04-15T07:31:27;6.47;;;2.45;;
15112;SDS011;7657;50.140;7.076;2023-04-15T07:33:54;4.75;;;2.30;;
15112;SDS011;7657;50.140;7.076;2023-04-15T07:36:21;5.65;;;2.47;;
15112;SDS011;7657;50.140;7.076;2023-04-15T07:38:48;4.53;;;2.03;;
15112;SDS011;7657;50.140;7.076;2023-04-15T07:41:15;5.03;;;2.20;;
15112;SDS011;7657;50.140;7.076;2023-04-15T07:43:43;3.97;;;1.80;;
15112;SDS011;7657;50.140;7.076;2023-04-15T07:46:10;4.40;;;1.85;;
15112;SDS011;7657;50.140;7.076;2023-04-15T07:48:37;5.47;;;1.80;;
15112;SDS011;7657;50.140;7.076;2023-04-15T07:51:04;3.45;;;1.20;;
15112;SDS011;7657;50.140;7.076;2023-04-15T07:53:31;2.60;;;1.25;;
15112;SDS011;7657;50.140;7.076;2023-04-15T07:55:58;3.53;;;1.23;;
15112;SDS011;7657;50.140;7.076;2023-04-15T07:58:25;4.43;;;1.30;;
15112;SDS011;7657;50.140;7.076;2023-04-15T08:00:53;3.80;;;1.73;;
15112;SDS011;7657;50.140;7.076;2023-04-15T08:03:21;5.70;;;3.25;;
15112;SDS011;7657;50.140;7.076;2023-04-15T08:05:48;3.22;;;1.40;;
15112;SDS011;7657;50.140;7.076;2023-04-15T08:08:15;4.88;;;2.30;;
15112;SDS011;7657;50.140;7.076;2023-04-15T08:10:42;2.83;;;1.30;;
15112;SDS011;7657;50.140;7.076;2023-04-15T08:13:09;2.80;;;1.13;;
15112;SDS011;7657;50.140;7.076;2023-04-15T08:15:36;3.35;;;1.98;;
15112;SDS011;7657;50.140;7.076;2023-04-15T08:18:04;2.97;;;1.92;;
15112;SDS011;7657;50.140;7.076;2023-04-15T08:20:31;2.70;;;1.05;;
15112;SDS011;7657;50.140;7.076;2023-04-15T08:22:58;4.68;;;1.50;;
15112;SDS011;7657;50.140;7.076;2023-04-15T08:25:25;3.08;;;1.48;;
15112;SDS011;7657;50.140;7.076;2023-04-15T08:27:54;2.80;;;1.20;;
15112;SDS011;7657;50.140;7.076;2023-04-15T08:30:21;3.88;;;1.35;;
15112;SDS011;7657;50.140;7.076;2023-04-15T08:32:49;2.92;;;1.30;;
15112;SDS011;7657;50.140;7.076;2023-04-15T08:35:17;4.97;;;3.92;;
15112;SDS011;7657;50.140;7.076;2023-04-15T08:37:44;5.65;;;1.58;;
15112;SDS011;7657;50.140;7.076;2023-04-15T08:40:11;3.67;;;2.13;;
15112;SDS011;7657;50.140;7.076;2023-04-15T08:42:40;2.42;;;1.50;;
15112;SDS011;7657;50.140;7.076;2023-04-15T08:45:09;2.75;;;1.73;;
15112;SDS011;7657;50.140;7.076;2023-04-15T08:47:36;5.70;;;2.00;;
15112;SDS011;7657;50.140;7.076;2023-04-15T08:50:04;6.68;;;3.10;;
15112;SDS011;7657;50.140;7.076;2023-04-15T08:52:36;3.50;;;2.20;;
15112;SDS011;7657;50.140;7.076;2023-04-15T08:55:03;6.80;;;3.30;;
15112;SDS011;7657;50.140;7.076;2023-04-15T08:57:32;3.15;;;1.52;;
15112;SDS011;7657;50.140;7.076;2023-04-15T09:00:01;3.50;;;2.35;;
15112;SDS011;7657;50.140;7.076;2023-04-15T09:02:29;7.43;;;2.15;;
15112;SDS011;7657;50.140;7.076;2023-04-15T09:04:56;6.22;;;2.60;;
15112;SDS011;7657;50.140;7.076;2023-04-15T09:07:23;6.70;;;2.88;;
15112;SDS011;7657;50.140;7.076;2023-04-15T09:09:52;4.35;;;2.17;;
15112;SDS011;7657;50.140;7.076;2023-04-15T09:12:19;6.75;;;2.28;;
15112;SDS011;7657;50.140;7.076;2023-04-15T09:14:46;3.50;;;2.17;;
15112;SDS011;7657;50.140;7.076;2023-04-15T09:17:14;3.33;;;2.42;;
15112;SDS011;7657;50.140;7.076;2023-04-15T09:19:45;6.90;;;2.58;;
15112;SDS011;7657;50.140;7.076;2023-04-15T09:22:12;5.47;;;2.40;;
15112;SDS011;7657;50.140;7.076;2023-04-15T09:24:39;6.30;;;3.13;;
15112;SDS011;7657;50.140;7.076;2023-04-15T09:27:08;5.03;;;2.90;;
15112;SDS011;7657;50.140;7.076;2023-04-15T09:29:35;6.70;;;2.75;;
15112;SDS011;7657;50.140;7.076;2023-04-15T09:32:08;3.97;;;2.45;;
15112;SDS011;7657;50.140;7.076;2023-04-15T09:34:36;5.30;;;3.00;;
15112;SDS011;7657;50.140;7.076;2023-04-15T09:37:03;8.07;;;2.60;;
15112;SDS011;7657;50.140;7.076;2023-04-15T09:39:47;2.83;;;2.50;;
15112;SDS011;7657;50.140;7.076;2023-04-15T09:42:16;6.05;;;2.70;;
15112;SDS011;7657;50.140;7.076;2023-04-15T09:44:48;4.15;;;2.70;;
15112;SDS011;7657;50.140;7.076;2023-04-15T09:47:28;3.20;;;2.35;;
15112;SDS011;7657;50.140;7.076;2023-04-15T09:49:56;5.60;;;3.22;;
15112;SDS011;7657;50.140;7.076;2023-04-15T09:52:24;4.03;;;2.50;;
15112;SDS011;7657;50.140;7.076;2023-04-15T09:54:52;2.53;;;2.00;;
15112;SDS011;7657;50.140;7.076;2023-04-15T09:57:21;4.47;;;2.80;;
15112;SDS011;7657;50.140;7.076;2023-04-15T09:59:49;6.68;;;2.90;;
15112;SDS011;7657;50.140;7.076;2023-04-15T10:02:17;4.13;;;2.42;;
15112;SDS011;7657;50.140;7.076;2023-04-15T10:04:45;4.88;;;2.35;;
15112;SDS011;7657;50.140;7.076;2023-04-15T10:07:13;3.92;;;2.25;;
15112;SDS011;7657;50.140;7.076;2023-04-15T10:09:42;5.60;;;3.28;;
15112;SDS011;7657;50.140;7.076;2023-04-15T10:12:11;3.08;;;2.42;;
15112;SDS011;7657;50.140;7.076;2023-04-15T10:14:39;4.55;;;2.80;;
15112;SDS011;7657;50.140;7.076;2023-04-15T10:17:09;3.35;;;2.47;;
15112;SDS011;7657;50.140;7.076;2023-04-15T10:19:37;4.90;;;2.58;;
15112;SDS011;7657;50.140;7.076;2023-04-15T10:22:04;2.83;;;2.50;;
15112;SDS011;7657;50.140;7.076;2023-04-15T10:24:32;4.30;;;2.70;;
15112;SDS011;7657;50.140;7.076;2023-04-15T10:26:59;3.38;;;2.22;;
15112;SDS011;7657;50.140;7.076;2023-04-15T10:29:28;4.50;;;2.80;;
15112;SDS011;7657;50.140;7.076;2023-04-15T10:31:56;5.97;;;4.00;;
15112;SDS011;7657;50.140;7.076;2023-04-15T10:34:25;3.65;;;2.30;;
15112;SDS011;7657;50.140;7.076;2023-04-15T10:36:54;3.22;;;2.05;;
15112;SDS011;7657;50.140;7.076;2023-04-15T10:39:37;2.60;;;2.40;;
15112;SDS011;7657;50.140;7.076;2023-04-15T10:42:09;6.57;;;3.42;;
15112;SDS011;7657;50.140;7.076;2023-04-15T10:44:37;4.32;;;3.10;;
15112;SDS011;7657;50.140;7.076;2023-04-15T10:47:15;5.70;;;2.30;;
15112;SDS011;7657;50.140;7.076;2023-04-15T10:49:48;3.10;;;2.25;;
15112;SDS011;7657;50.140;7.076;2023-04-15T10:52:17;5.18;;;1.90;;
15112;SDS011;7657;50.140;7.076;2023-04-15T10:54:48;3.88;;;2.95;;
15112;SDS011;7657;50.140;7.076;2023-04-15T10:57:16;2.58;;;2.35;;
15112;SDS011;7657;50.140;7.076;2023-04-15T11:00:00;14.15;;;7.25;;
15112;SDS011;7657;50.140;7.076;2023-04-15T11:02:40;4.85;;;3.67;;
15112;SDS011;7657;50.140;7.076;2023-04-15T11:05:09;4.88;;;3.30;;
15112;SDS011;7657;50.140;7.076;2023-04-15T11:07:37;4.80;;;2.83;;
15112;SDS011;7657;50.140;7.076;2023-04-15T11:13:19;3.70;;;2.45;;
15112;SDS011;7657;50.140;7.076;2023-04-15T11:15:48;4.00;;;3.30;;
15112;SDS011;7657;50.140;7.076;2023-04-15T11:18:17;2.75;;;2.53;;
15112;SDS011;7657;50.140;7.076;2023-04-15T11:20:46;3.70;;;2.45;;
15112;SDS011;7657;50.140;7.076;2023-04-15T11:23:16;5.22;;;2.53;;
15112;SDS011;7657;50.140;7.076;2023-04-15T11:25:44;3.47;;;2.38;;
15112;SDS011;7657;50.140;7.076;2023-04-15T11:28:12;2.95;;;2.38;;
15112;SDS011;7657;50.140;7.076;2023-04-15T11:30:39;4.57;;;2.70;;
15112;SDS011;7657;50.140;7.076;2023-04-15T11:33:08;5.45;;;3.00;;
15112;SDS011;7657;50.140;7.076;2023-04-15T11:35:40;2.88;;;2.50;;
15112;SDS011;7657;50.140;7.076;2023-04-15T11:38:08;5.88;;;3.78;;
15112;SDS011;7657;50.140;7.076;2023-04-15T11:40:37;3.70;;;2.90;;
15112;SDS011;7657;50.140;7.076;2023-04-15T11:43:04;4.05;;;2.80;;
15112;SDS011;7657;50.140;7.076;2023-04-15T11:45:33;8.23;;;2.80;;
15112;SDS011;7657;50.140;7.076;2023-04-15T11:48:09;5.03;;;2.53;;
15112;SDS011;7657;50.140;7.076;2023-04-15T11:50:37;2.60;;;1.95;;
15112;SDS011;7657;50.140;7.076;2023-04-15T11:53:07;4.60;;;3.15;;
15112;SDS011;7657;50.140;7.076;2023-04-15T11:55:42;3.08;;;2.03;;
15112;SDS011;7657;50.140;7.076;2023-04-15T11:58:11;6.07;;;2.13;;
15112;SDS011;7657;50.140;7.076;2023-04-15T12:00:42;2.22;;;2.03;;
15112;SDS011;7657;50.140;7.076;2023-04-15T12:03:13;3.85;;;2.40;;
15112;SDS011;7657;50.140;7.076;2023-04-15T12:06:01;4.53;;;2.90;;
15112;SDS011;7657;50.140;7.076;2023-04-15T12:11:37;2.47;;;2.28;;
15112;SDS011;7657;50.140;7.076;2023-04-15T12:14:07;3.97;;;2.05;;
15112;SDS011;7657;50.140;7.076;2023-04-15T12:16:38;2.47;;;2.17;;
15112;SDS011;7657;50.140;7.076;2023-04-15T12:19:08;3.35;;;2.60;;
15112;SDS011;7657;50.140;7.076;2023-04-15T12:21:37;3.05;;;2.40;;
15112;SDS011;7657;50.140;7.076;2023-04-15T12:24:05;4.90;;;3.60;;
15112;SDS011;7657;50.140;7.076;2023-04-15T12:26:34;6.18;;;4.32;;
15112;SDS011;7657;50.140;7.076;2023-04-15T12:29:04;8.70;;;5.25;;
15112;SDS011;7657;50.140;7.076;2023-04-15T12:31:32;6.40;;;3.13;;
15112;SDS011;7657;50.140;7.076;2023-04-15T12:34:00;7.32;;;4.32;;
15112;SDS011;7657;50.140;7.076;2023-04-15T12:36:28;1.95;;;1.52;;
15112;SDS011;7657;50.140;7.076;2023-04-15T12:39:00;3.97;;;2.17;;
15112;SDS011;7657;50.140;7.076;2023-04-15T12:41:28;3.78;;;2.70;;
15112;SDS011;7657;50.140;7.076;2023-04-15T12:43:56;7.40;;;4.15;;
15112;SDS011;7657;50.140;7.076;2023-04-15T12:46:23;7.72;;;4.28;;
15112;SDS011;7657;50.140;7.076;2023-04-15T12:48:51;6.18;;;4.13;;
15112;SDS011;7657;50.140;7.076;2023-04-15T12:51:18;4.97;;;3.55;;
15112;SDS011;7657;50.140;7.076;2023-04-15T12:53:46;7.60;;;4.13;;
15112;SDS011;7657;50.140;7.076;2023-04-15T12:56:13;5.57;;;4.10;;
15112;SDS011;7657;50.140;7.076;2023-04-15T12:58:40;10.93;;;6.68;;
15112;SDS011;7657;50.140;7.076;2023-04-15T13:01:09;7.47;;;4.43;;
15112;SDS011;7657;50.140;7.076;2023-04-15T13:03:36;8.75;;;5.70;;
15112;SDS011;7657;50.140;7.076;2023-04-15T13:06:03;13.00;;;7.97;;
15112;SDS011;7657;50.140;7.076;2023-04-15T13:08:31;16.83;;;10.23;;
15112;SDS011;7657;50.140;7.076;2023-04-15T13:10:58;7.35;;;4.82;;
15112;SDS011;7657;50.140;7.076;2023-04-15T13:13:25;9.60;;;5.45;;
15112;SDS011;7657;50.140;7.076;2023-04-15T13:15:52;13.55;;;7.72;;
15112;SDS011;7657;50.140;7.076;2023-04-15T13:18:20;8.90;;;5.85;;
15112;SDS011;7657;50.140;7.076;2023-04-15T13:20:47;9.55;;;5.88;;
15112;SDS011;7657;50.140;7.076;2023-04-15T13:23:14;8.25;;;5.57;;
15112;SDS011;7657;50.140;7.076;2023-04-15T13:25:41;8.02;;;5.45;;
15112;SDS011;7657;50.140;7.076;2023-04-15T13:28:09;7.53;;;5.18;;
15112;SDS011;7657;50.140;7.076;2023-04-15T13:30:36;10.02;;;6.32;;
15112;SDS011;7657;50.140;7.076;2023-04-15T13:33:04;5.95;;;4.13;;
15112;SDS011;7657;50.140;7.076;2023-04-15T13:35:32;10.23;;;6.20;;
15112;SDS011;7657;50.140;7.076;2023-04-15T13:37:59;7.07;;;4.22;;
15112;SDS011;7657;50.140;7.076;2023-04-15T13:40:26;8.18;;;5.60;;
15112;SDS011;7657;50.140;7.076;2023-04-15T13:42:53;16.88;;;8.15;;
15112;SDS011;7657;50.140;7.076;2023-04-15T13:45:21;11.85;;;6.50;;
15112;SDS011;7657;50.140;7.076;2023-04-15T13:47:48;5.30;;;3.95;;
15112;SDS011;7657;50.140;7.076;2023-04-15T13:50:15;4.60;;;4.13;;
15112;SDS011;7657;50.140;7.076;2023-04-15T13:52:43;4.45;;;3.63;;
15112;SDS011;7657;50.140;7.076;2023-04-15T13:55:10;3.78;;;3.13;;
15112;SDS011;7657;50.140;7.076;2023-04-15T13:57:37;6.65;;;3.42;;
15112;SDS011;7657;50.140;7.076;2023-04-15T14:00:04;3.50;;;3.13;;
15112;SDS011;7657;50.140;7.076;2023-04-15T14:02:32;4.65;;;3.35;;
15112;SDS011;7657;50.140;7.076;2023-04-15T14:04:59;3.40;;;3.10;;
15112;SDS011;7657;50.140;7.076;2023-04-15T14:07:27;7.75;;;7.05;;
15112;SDS011;7657;50.140;7.076;2023-04-15T14:09:56;5.50;;;4.53;;
15112;SDS011;7657;50.140;7.076;2023-04-15T14:12:22;8.77;;;6.40;;
15112;SDS011;7657;50.140;7.076;2023-04-15T14:14:49;5.03;;;4.20;;
15112;SDS011;7657;50.140;7.076;2023-04-15T14:17:16;3.90;;;3.60;;
15112;SDS011;7657;50.140;7.076;2023-04-15T14:19:43;4.53;;;4.13;;
15112;SDS011;7657;50.140;7.076;2023-04-15T14:22:10;8.55;;;7.25;;
15112;SDS011;7657;50.140;7.076;2023-04-15T14:24:37;13.32;;;10.60;;
15112;SDS011;7657;50.140;7.076;2023-04-15T14:27:06;6.00;;;5.50;;
15112;SDS011;7657;50.140;7.076;2023-04-15T14:29:35;6.25;;;5.65;;
15112;SDS011;7657;50.140;7.076;2023-04-15T14:32:02;8.30;;;7.05;;
15112;SDS011;7657;50.140;7.076;2023-04-15T14:34:29;8.45;;;7.65;;
15112;SDS011;7657;50.140;7.076;2023-04-15T14:36:56;13.10;;;8.13;;
15112;SDS011;7657;50.140;7.076;2023-04-15T14:39:22;8.30;;;6.40;;
15112;SDS011;7657;50.140;7.076;2023-04-15T14:41:49;13.65;;;7.25;;
15112;SDS011;7657;50.140;7.076;2023-04-15T14:44:17;11.50;;;7.97;;
15112;SDS011;7657;50.140;7.076;2023-04-15T14:46:44;8.00;;;6.20;;
15112;SDS011;7657;50.140;7.076;2023-04-15T14:49:11;15.18;;;8.00;;
15112;SDS011;7657;50.140;7.076;2023-04-15T14:51:38;15.52;;;8.75;;
15112;SDS011;7657;50.140;7.076;2023-04-15T14:54:05;8.13;;;6.55;;
15112;SDS011;7657;50.140;7.076;2023-04-15T14:56:32;7.00;;;6.00;;
15112;SDS011;7657;50.140;7.076;2023-04-15T14:58:59;6.93;;;6.22;;
15112;SDS011;7657;50.140;7.076;2023-04-15T15:01:28;9.07;;;7.53;;
15112;SDS011;7657;50.140;7.076;2023-04-15T15:03:55;8.80;;;7.90;;
15112;SDS011;7657;50.140;7.076;2023-04-15T15:06:22;10.82;;;8.50;;
15112;SDS011;7657;50.140;7.076;2023-04-15T15:08:49;9.25;;;8.30;;
15112;SDS011;7657;50.140;7.076;2023-04-15T15:11:16;12.40;;;10.95;;